LFRQ 181530Z AUTO 26008KT 230V300 9999 BKN019 BKN031 OVC044 20/14 Q1019 BECMG OVC007

ElémentsDécodage
LFRQ Station météo située sur l'aérodrome de QUIMPER Pluguffan
181530Z émis le 18 du mois à 15h30 UTC
AUTO Bulletin édité par un automate
26008KT vent du 260°, 08 noeuds
230V300 vent de direction variable entre 230° et 300°
9999 visibilité horizontale supérieure à 10 Km
BKN019 nuages morcelés (5/8 à 7/8) à 1900 pieds
BKN031 nuages morcelés (5/8 à 7/8) à 3100 pieds
OVC044 couverture nuageuse totale (8/8) à 4400 pieds
20/14 température 20°C, point de rosée 14°C
 soit une humidité relative de 68%
Q1019 la pression au niveau de la mer (QNH) est de 1019 hPa
BECMG fluctuation du temps prévue
OVC007 couverture nuageuse totale (8/8) à 700 pieds